Time;durP1;ratioP1;P1;durP2;ratioP2;P2;SDS_P1;SDS_P2;PMS_P1;PMS_P2;Temp;Humidity;BMP_temperature;BMP_pressure;BME280_temperature;BME280_humidity;BME280_pressure;Samples;Min_cycle;Max_cycle;Signal;HPM_P1;HPM_P2
2022/10/14 00:01:23;;;;;;;25.70;22.05;;;;;;;12.45;100.00;101353.69;5260935;28;20029;-70
2022/10/14 00:03:54;;;;;;;28.30;21.75;;;;;;;12.54;100.00;101351.16;5257329;28;20116;-70
2022/10/14 00:06:28;;;;;;;25.77;21.10;;;;;;;12.50;100.00;101362.19;5253397;28;20562;-70
2022/10/14 00:09:04;;;;;;;;;;;;;;;12.57;100.00;101358.09;5256584;28;20479;-70
2022/10/14 00:11:36;;;;;;;24.75;19.75;;;;;;;12.45;100.00;101359.88;5249938;28;20378;-70
2022/10/14 00:14:12;;;;;;;22.38;18.90;;;;;;;12.52;100.00;101360.25;5259714;28;20043;-70
2022/10/14 00:16:45;;;;;;;29.77;21.33;;;;;;;12.58;100.00;101357.13;5253899;28;20881;-70
2022/10/14 00:19:17;;;;;;;27.05;21.23;;;;;;;12.47;100.00;101351.75;5253419;28;20086;-70
2022/10/14 00:21:48;;;;;;;24.65;19.08;;;;;;;12.43;100.00;101364.50;5254407;28;20036;-70
2022/10/14 00:24:19;;;;;;;23.58;19.60;;;;;;;12.52;100.00;101361.13;5258051;28;20467;-70
2022/10/14 00:26:51;;;;;;;27.35;20.77;;;;;;;12.57;100.00;101357.25;5249609;28;20025;-70
2022/10/14 00:29:23;;;;;;;24.25;19.10;;;;;;;12.47;100.00;101360.63;5255525;28;20025;-70
2022/10/14 00:31:54;;;;;;;28.63;22.27;;;;;;;12.53;100.00;101359.31;5256032;28;20059;-70
2022/10/14 00:34:25;;;;;;;29.70;22.00;;;;;;;12.45;100.00;101349.19;5252018;28;20025;-70
2022/10/14 00:36:56;;;;;;;31.13;23.27;;;;;;;12.50;100.00;101354.19;5253070;28;20656;-70
2022/10/14 00:39:28;;;;;;;27.60;21.77;;;;;;;12.56;100.00;101340.34;5248457;28;20023;-70
2022/10/14 00:41:59;;;;;;;30.63;22.65;;;;;;;12.46;100.00;101336.66;5247637;28;20036;-70
2022/10/14 00:44:30;;;;;;;30.88;23.30;;;;;;;12.57;100.00;101335.84;5258711;28;20037;-70
2022/10/14 00:47:01;;;;;;;29.17;22.17;;;;;;;12.59;100.00;101333.88;5255145;28;20036;-70
2022/10/14 00:49:38;;;;;;;28.55;22.00;;;;;;;12.49;100.00;101329.25;5256530;28;20508;-70
2022/10/14 00:52:15;;;;;;;30.38;23.50;;;;;;;12.48;100.00;101326.69;5258424;28;20028;-70
2022/10/14 00:54:55;;;;;;;32.83;24.00;;;;;;;12.49;100.00;101323.03;5261932;28;20045;-70
2022/10/14 00:57:28;;;;;;;31.63;23.13;;;;;;;12.57;100.00;101315.25;5254998;28;20039;-70
2022/10/14 01:00:09;;;;;;;26.05;22.00;;;;;;;12.62;100.00;101318.44;5254583;28;20028;-70
2022/10/14 01:02:40;;;;;;;25.70;21.92;;;;;;;12.43;100.00;101312.81;5255909;28;20071;-70
2022/10/14 01:05:14;;;;;;;30.33;22.63;;;;;;;12.39;100.00;101324.69;5256292;28;20154;-70
2022/10/14 01:07:52;;;;;;;31.75;23.85;;;;;;;12.51;100.00;101313.06;5257361;28;20387;-70
2022/10/14 01:10:38;;;;;;;29.55;23.40;;;;;;;12.51;100.00;101315.75;5252504;28;20043;-70
2022/10/14 01:13:30;;;;;;;32.53;24.13;;;;;;;12.41;100.00;101315.59;5261999;28;20035;-70
2022/10/14 01:16:22;;;;;;;29.77;23.52;;;;;;;12.46;100.00;101312.56;5256299;28;20041;-70
2022/10/14 01:19:09;;;;;;;30.05;23.50;;;;;;;12.34;100.00;101307.19;5256045;28;20806;-70
2022/10/14 01:22:02;;;;;;;31.45;23.85;;;;;;;12.50;100.00;101303.31;5248236;28;20033;-70
2022/10/14 01:24:54;;;;;;;30.80;24.38;;;;;;;12.48;100.00;101294.56;5255120;28;20055;-70
2022/10/14 01:27:51;;;;;;;31.73;23.67;;;;;;;12.38;100.00;101288.22;5262132;28;20067;-70
2022/10/14 01:30:27;;;;;;;32.72;24.13;;;;;;;12.51;100.00;101278.28;5256143;28;20124;-70
2022/10/14 01:33:07;;;;;;;30.25;22.77;;;;;;;12.40;100.00;101272.91;5253025;28;20024;-69
2022/10/14 01:36:10;;;;;;;29.92;24.00;;;;;;;12.40;100.00;101275.56;5254758;28;20043;-69
2022/10/14 01:38:48;;;;;;;31.20;23.50;;;;;;;12.34;100.00;101267.03;5233863;28;20111;-69
2022/10/14 01:41:25;;;;;;;33.65;24.90;;;;;;;12.35;100.00;101267.91;5257965;28;20394;-70
2022/10/14 01:44:06;;;;;;;30.67;23.42;;;;;;;12.38;100.00;101261.47;5254793;28;20036;-69
2022/10/14 01:46:41;;;;;;;34.55;24.15;;;;;;;12.39;100.00;101257.78;5254036;28;20028;-69
2022/10/14 01:49:25;;;;;;;34.35;24.10;;;;;;;12.30;100.00;101256.69;5255856;28;20028;-69
2022/10/14 01:52:21;;;;;;;31.80;23.20;;;;;;;12.38;100.00;101250.75;5252285;28;20036;-70
2022/10/14 01:54:57;;;;;;;34.05;24.35;;;;;;;12.41;100.00;101253.22;5261239;28;20597;-69
2022/10/14 01:57:32;;;;;;;34.58;24.17;;;;;;;12.30;100.00;101257.53;5253783;28;20060;-69
2022/10/14 02:00:04;;;;;;;35.40;24.80;;;;;;;12.38;100.00;101254.28;5245737;28;20035;-69
2022/10/14 02:02:37;;;;;;;33.10;24.00;;;;;;;12.30;100.00;101260.22;5251019;28;20064;-69
2022/10/14 02:05:42;;;;;;;34.72;24.00;;;;;;;12.33;100.00;101254.66;5256964;28;20033;-69
2022/10/14 02:08:22;;;;;;;31.65;23.15;;;;;;;12.35;100.00;101254.53;5250383;28;20047;-69
2022/10/14 02:11:06;;;;;;;33.10;24.02;;;;;;;12.37;100.00;101247.25;5258300;28;20039;-69
2022/10/14 02:14:10;;;;;;;36.65;25.13;;;;;;;12.38;100.00;101242.72;5259294;28;20083;-70
2022/10/14 02:17:02;;;;;;;35.45;24.02;;;;;;;12.31;100.00;101243.22;5262860;28;20082;-69
2022/10/14 02:19:41;;;;;;;34.78;24.25;;;;;;;12.36;100.00;101241.00;5263261;28;20029;-70
2022/10/14 02:22:36;;;;;;;35.72;24.60;;;;;;;12.36;100.00;101238.34;5253838;28;20470;-70
2022/10/14 02:25:32;;;;;;;35.88;24.05;;;;;;;12.34;100.00;101240.28;5258662;28;20108;-69
2022/10/14 02:28:07;;;;;;;32.97;23.45;;;;;;;12.35;100.00;101241.16;5263277;28;20463;-69
2022/10/14 02:30:42;;;;;;;33.40;23.55;;;;;;;12.37;100.00;101231.19;5266482;28;20115;-70
2022/10/14 02:33:14;;;;;;;33.47;23.02;;;;;;;12.40;100.00;101233.59;5261133;28;20458;-69
2022/10/14 02:35:47;;;;;;;32.80;22.35;;;;;;;12.40;100.00;101235.44;5264334;28;20119;-69
2022/10/14 02:38:19;;;;;;;35.42;23.92;;;;;;;12.35;100.00;101241.16;5255571;28;20024;-69
2022/10/14 02:40:51;;;;;;;35.90;22.92;;;;;;;12.43;100.00;101235.22;5268867;28;20111;-69
2022/10/14 02:43:22;;;;;;;39.35;24.30;;;;;;;12.43;100.00;101235.22;5255160;28;20033;-69
2022/10/14 02:46:00;;;;;;;36.80;23.35;;;;;;;12.41;100.00;101229.97;5258654;28;20263;-69
2022/10/14 02:48:32;;;;;;;37.03;22.73;;;;;;;12.36;100.00;101227.63;5256906;28;20067;-69
2022/10/14 02:51:03;;;;;;;45.53;24.20;;;;;;;12.38;100.00;101230.19;5256143;28;20119;-69
2022/10/14 02:53:34;;;;;;;43.22;24.35;;;;;;;12.43;100.00;101224.50;5251592;28;20491;-69
2022/10/14 02:56:06;;;;;;;47.63;24.35;;;;;;;12.39;100.00;101220.34;5257680;28;20017;-70
2022/10/14 02:58:38;;;;;;;45.83;24.88;;;;;;;12.39;100.00;101218.53;5258623;28;21064;-70
2022/10/14 03:01:09;;;;;;;41.75;23.95;;;;;;;12.35;100.00;101211.72;5253514;28;20184;-70
2022/10/14 03:03:40;;;;;;;42.58;24.05;;;;;;;12.40;100.00;101212.19;5255670;28;20056;-70
2022/10/14 03:06:12;;;;;;;38.03;23.73;;;;;;;12.37;100.00;101212.44;5264115;28;20517;-70
2022/10/14 03:08:43;;;;;;;40.22;22.80;;;;;;;12.49;100.00;101203.44;5256302;28;20536;-70
2022/10/14 03:11:14;;;;;;;35.50;22.10;;;;;;;12.51;100.00;101204.19;5262787;28;20025;-70
2022/10/14 03:13:46;;;;;;;42.72;23.33;;;;;;;12.41;100.00;101202.38;5262124;28;20398;-70
2022/10/14 03:16:17;;;;;;;37.20;22.67;;;;;;;12.40;100.00;101197.97;5261279;28;20322;-69
2022/10/14 03:18:49;;;;;;;35.13;21.70;;;;;;;12.52;100.00;101194.31;5260539;28;20106;-70
2022/10/14 03:21:20;;;;;;;36.38;22.48;;;;;;;12.47;100.00;101188.50;5257069;28;20028;-70
2022/10/14 03:23:51;;;;;;;34.25;21.02;;;;;;;12.51;100.00;101190.78;5256258;28;20032;-70
2022/10/14 03:26:23;;;;;;;33.10;21.20;;;;;;;12.46;100.00;101187.63;5259405;28;20065;-70
2022/10/14 03:28:54;;;;;;;37.38;22.23;;;;;;;12.45;100.00;101190.44;5252776;28;20024;-70
2022/10/14 03:31:25;;;;;;;32.53;21.05;;;;;;;12.71;100.00;101189.22;5251151;28;20016;-70
2022/10/14 03:33:57;;;;;;;37.05;22.45;;;;;;;12.55;100.00;101184.22;5261462;28;20024;-70
2022/10/14 03:36:28;;;;;;;33.80;21.33;;;;;;;12.55;100.00;101176.19;5253718;28;20043;-70
2022/10/14 03:38:59;;;;;;;33.60;22.10;;;;;;;12.47;100.00;101175.09;5255441;28;20032;-70
2022/10/14 03:41:31;;;;;;;35.03;21.52;;;;;;;12.46;100.00;101173.41;5249903;28;20043;-70
2022/10/14 03:44:02;;;;;;;32.65;19.65;;;;;;;12.41;100.00;101173.78;5259878;28;20031;-70
2022/10/14 03:46:33;;;;;;;33.78;20.70;;;;;;;12.44;100.00;101170.84;5259184;28;20024;-70
2022/10/14 03:49:04;;;;;;;31.10;20.70;;;;;;;12.45;100.00;101161.84;5255313;28;20025;-70
2022/10/14 03:51:36;;;;;;;29.58;20.65;;;;;;;12.52;100.00;101159.50;5261394;28;20462;-70
2022/10/14 03:54:08;;;;;;;26.48;19.25;;;;;;;12.46;100.00;101160.00;5266759;28;20037;-70
2022/10/14 03:56:39;;;;;;;29.08;19.13;;;;;;;12.50;100.00;101158.78;5253433;28;20509;-70
2022/10/14 03:59:10;;;;;;;32.30;20.45;;;;;;;12.50;100.00;101161.47;5243814;28;20028;-70
2022/10/14 04:01:42;;;;;;;31.25;19.05;;;;;;;12.44;100.00;101162.81;5246568;28;20516;-70
2022/10/14 04:04:13;;;;;;;34.13;19.83;;;;;;;12.51;100.00;101155.16;5251519;28;20041;-70
2022/10/14 04:06:44;;;;;;;29.80;19.23;;;;;;;12.46;100.00;101151.97;5248802;28;20029;-70
2022/10/14 04:09:16;;;;;;;28.52;18.77;;;;;;;12.58;100.00;101145.66;5249661;28;20094;-70
2022/10/14 04:11:47;;;;;;;28.90;18.40;;;;;;;12.54;100.00;101152.22;5252338;28;20063;-71
2022/10/14 04:14:18;;;;;;;28.38;18.48;;;;;;;12.53;100.00;101145.19;5251711;28;20083;-70
2022/10/14 04:16:50;;;;;;;24.80;17.63;;;;;;;12.56;100.00;101144.94;5249120;28;20497;-70
2022/10/14 04:19:21;;;;;;;24.55;17.27;;;;;;;12.48;100.00;101147.34;5247638;28;21018;-70
2022/10/14 04:21:53;;;;;;;23.00;17.30;;;;;;;12.47;100.00;101151.03;5251315;28;20039;-70
2022/10/14 04:24:24;;;;;;;26.98;18.10;;;;;;;12.49;100.00;101141.88;5250227;28;20039;-70
2022/10/14 04:26:55;;;;;;;23.65;17.17;;;;;;;12.61;100.00;101144.56;5249848;28;20040;-71
2022/10/14 04:29:27;;;;;;;25.50;17.15;;;;;;;12.49;100.00;101138.38;5249498;28;20037;-71
2022/10/14 04:31:58;;;;;;;23.40;17.35;;;;;;;12.51;100.00;101133.75;5239579;28;20024;-71
2022/10/14 04:34:29;;;;;;;28.45;18.00;;;;;;;12.53;100.00;101129.97;5245762;28;20055;-71
2022/10/14 04:37:00;;;;;;;24.67;16.88;;;;;;;12.48;100.00;101139.34;5245712;28;20033;-70
2022/10/14 04:39:32;;;;;;;24.95;15.57;;;;;;;12.54;100.00;101125.44;5255345;28;20056;-71
2022/10/14 04:42:03;;;;;;;27.45;17.92;;;;;;;12.53;100.00;101131.78;5250880;28;20028;-70
2022/10/14 04:44:34;;;;;;;23.90;16.17;;;;;;;12.55;100.00;101119.97;5255722;28;20025;-71
2022/10/14 04:47:05;;;;;;;25.33;16.60;;;;;;;12.48;100.00;101128.63;5254935;28;20658;-70
2022/10/14 04:49:37;;;;;;;22.55;15.80;;;;;;;12.55;100.00;101127.16;5252725;28;20071;-71
2022/10/14 04:52:08;;;;;;;22.20;16.55;;;;;;;12.57;100.00;101119.03;5256190;28;20356;-71
2022/10/14 04:54:39;;;;;;;23.42;16.27;;;;;;;12.53;100.00;101121.94;5257140;28;20767;-70
2022/10/14 04:57:11;;;;;;;23.65;15.60;;;;;;;12.56;100.00;101112.81;5255058;28;21757;-70
2022/10/14 04:59:42;;;;;;;23.70;15.43;;;;;;;12.50;100.00;101111.50;5255241;28;20553;-71
2022/10/14 05:02:13;;;;;;;21.80;14.90;;;;;;;12.49;100.00;101117.81;5244827;28;20035;-71
2022/10/14 05:04:46;;;;;;;19.08;14.52;;;;;;;12.62;100.00;101117.69;5249772;28;20044;-71
2022/10/14 05:07:17;;;;;;;22.45;15.43;;;;;;;12.57;100.00;101111.84;5258682;28;20035;-71
2022/10/14 05:09:48;;;;;;;19.73;14.52;;;;;;;12.63;100.00;101108.66;5260907;28;20032;-67
2022/10/14 05:12:20;;;;;;;19.35;14.27;;;;;;;12.57;100.00;101106.47;5251099;28;20039;-68
2022/10/14 05:14:51;;;;;;;19.75;14.35;;;;;;;12.61;100.00;101099.91;5258436;28;20032;-66
2022/10/14 05:17:23;;;;;;;21.23;14.15;;;;;;;12.53;100.00;101099.69;5253133;28;20130;-71
2022/10/14 05:19:54;;;;;;;19.08;13.10;;;;;;;12.52;100.00;101093.47;5264524;28;21235;-70
2022/10/14 05:22:26;;;;;;;14.77;12.05;;;;;;;12.55;100.00;101095.06;5258299;28;20804;-70
2022/10/14 05:24:58;;;;;;;22.38;13.07;;;;;;;12.62;100.00;101087.34;5260022;28;20159;-68
2022/10/14 05:27:29;;;;;;;17.45;12.15;;;;;;;12.64;100.00;101082.75;5258870;28;20024;-68
2022/10/14 05:30:01;;;;;;;16.52;13.07;;;;;;;12.54;100.00;101079.94;5252370;28;20032;-66
2022/10/14 05:32:32;;;;;;;16.05;11.18;;;;;;;12.70;100.00;101075.06;5250334;28;20475;-68
2022/10/14 05:35:04;;;;;;;17.08;12.27;;;;;;;12.58;100.00;101070.72;5240159;28;20109;-68
2022/10/14 05:37:35;;;;;;;15.75;10.70;;;;;;;12.74;100.00;101068.47;5261284;28;20037;-68
2022/10/14 05:40:07;;;;;;;15.88;11.88;;;;;;;12.68;100.00;101070.81;5260943;28;20048;-65
2022/10/14 05:42:38;;;;;;;13.88;11.07;;;;;;;12.70;100.00;101076.91;5263070;28;20440;-65
2022/10/14 05:45:10;;;;;;;13.50;10.85;;;;;;;12.68;100.00;101058.28;5262305;28;20058;-65
2022/10/14 05:47:45;;;;;;;13.32;10.88;;;;;;;12.64;100.00;101064.84;5261385;28;20024;-65
2022/10/14 05:50:16;;;;;;;14.45;10.90;;;;;;;12.63;100.00;101056.94;5263077;28;20044;-64
2022/10/14 05:52:47;;;;;;;14.77;10.65;;;;;;;12.64;100.00;101056.84;5260096;28;20033;-64
2022/10/14 05:55:19;;;;;;;15.68;10.65;;;;;;;12.62;100.00;101050.75;5239895;28;20511;-64
2022/10/14 05:57:54;;;;;;;12.55;10.38;;;;;;;12.59;100.00;101051.00;5257527;28;20068;-64
2022/10/14 06:00:27;;;;;;;14.27;10.15;;;;;;;12.64;100.00;101043.44;5249136;28;20077;-64
2022/10/14 06:02:58;;;;;;;13.48;10.55;;;;;;;12.61;100.00;101046.34;5263863;28;20021;-64
2022/10/14 06:05:30;;;;;;;13.00;10.23;;;;;;;12.64;100.00;101047.97;5262833;28;20035;-64
2022/10/14 06:08:01;;;;;;;14.45;10.30;;;;;;;12.58;100.00;101051.97;5251725;28;20025;-64
2022/10/14 06:10:34;;;;;;;14.40;10.48;;;;;;;12.64;100.00;101047.97;5260050;28;20040;-64
2022/10/14 06:13:05;;;;;;;14.20;11.00;;;;;;;12.66;100.00;101041.50;5263162;28;20413;-65
2022/10/14 06:15:37;;;;;;;13.70;10.55;;;;;;;12.69;100.00;101041.22;5261355;28;20138;-64
2022/10/14 06:18:08;;;;;;;16.23;10.40;;;;;;;12.63;100.00;101035.53;5256568;28;20086;-64
2022/10/14 06:20:39;;;;;;;12.50;10.15;;;;;;;12.62;100.00;101039.16;5263445;28;20032;-65
2022/10/14 06:23:10;;;;;;;13.85;10.35;;;;;;;12.68;100.00;101031.50;5267900;28;20538;-64
2022/10/14 06:25:42;;;;;;;12.63;10.25;;;;;;;12.63;100.00;101031.03;5259440;28;20552;-64
2022/10/14 06:28:13;;;;;;;14.77;10.68;;;;;;;12.64;100.00;101039.94;5280764;28;20024;-64
2022/10/14 06:30:51;;;;;;;13.68;10.63;;;;;;;12.67;100.00;101043.16;5281786;28;20036;-64
2022/10/14 06:33:22;;;;;;;13.38;9.93;;;;;;;12.73;100.00;101040.00;5275894;28;20447;-64
2022/10/14 06:35:54;;;;;;;11.77;9.90;;;;;;;12.66;100.00;101030.78;5282772;28;20036;-64
2022/10/14 06:38:26;;;;;;;13.88;10.65;;;;;;;12.71;100.00;101031.25;5263420;28;20036;-64
2022/10/14 06:40:57;;;;;;;14.60;10.93;;;;;;;12.71;100.00;101030.38;5274927;28;20061;-64
2022/10/14 06:43:28;;;;;;;13.93;11.15;;;;;;;12.69;100.00;101025.16;5269293;28;20524;-64
2022/10/14 06:46:02;;;;;;;14.18;10.93;;;;;;;12.69;100.00;101024.31;5284544;28;20036;-64
2022/10/14 06:48:33;;;;;;;14.45;10.80;;;;;;;12.71;100.00;101030.38;5274386;28;20024;-64
2022/10/14 06:51:04;;;;;;;14.60;11.18;;;;;;;12.72;100.00;101024.91;5278250;28;20055;-64
2022/10/14 06:53:36;;;;;;;14.23;10.50;;;;;;;12.76;100.00;101025.50;5277480;28;20114;-65
2022/10/14 06:56:10;;;;;;;15.07;10.35;;;;;;;12.72;100.00;101026.75;5285894;28;20114;-64
2022/10/14 06:58:41;;;;;;;14.85;10.35;;;;;;;12.84;100.00;101027.56;5287909;28;20445;-64
2022/10/14 07:01:12;;;;;;;12.60;10.52;;;;;;;12.80;100.00;101024.28;5281847;28;20134;-64
2022/10/14 07:03:44;;;;;;;12.25;10.30;;;;;;;12.78;100.00;101012.84;5285182;28;20035;-64
2022/10/14 07:06:15;;;;;;;13.85;9.63;;;;;;;12.81;100.00;101007.25;5292708;28;20105;-64
2022/10/14 07:08:46;;;;;;;14.52;10.68;;;;;;;12.83;100.00;101007.97;5288329;28;20037;-64
2022/10/14 07:11:17;;;;;;;13.90;10.75;;;;;;;12.84;100.00;101000.78;5285892;28;20130;-65
2022/10/14 07:13:49;;;;;;;14.05;10.40;;;;;;;12.88;100.00;101002.22;5289611;28;20036;-64
2022/10/14 07:16:20;;;;;;;14.32;10.07;;;;;;;12.93;100.00;101008.03;5284209;28;20035;-64
2022/10/14 07:18:51;;;;;;;14.73;10.45;;;;;;;12.87;100.00;101008.56;5281092;28;20502;-65
2022/10/14 07:21:23;;;;;;;13.75;10.50;;;;;;;13.03;100.00;101008.97;5280600;28;20032;-65
2022/10/14 07:23:54;;;;;;;14.48;9.60;;;;;;;13.01;100.00;101012.75;5288914;28;20035;-64
2022/10/14 07:26:26;;;;;;;12.98;10.32;;;;;;;12.97;100.00;101022.88;5286579;28;20411;-63
2022/10/14 07:28:57;;;;;;;11.85;9.65;;;;;;;12.98;100.00;101024.56;5281014;28;20036;-68
2022/10/14 07:31:28;;;;;;;13.57;10.00;;;;;;;13.02;100.00;101026.03;5277053;28;20115;-68
2022/10/14 07:34:00;;;;;;;12.30;9.80;;;;;;;13.09;100.00;101024.50;5288651;28;20344;-68
2022/10/14 07:36:31;;;;;;;15.18;9.82;;;;;;;13.04;100.00;101025.88;5285301;28;20573;-68
2022/10/14 07:39:04;;;;;;;11.85;9.23;;;;;;;13.08;100.00;101027.34;5286086;28;20051;-67
2022/10/14 07:41:36;;;;;;;11.90;9.60;;;;;;;13.06;100.00;101027.47;5279339;28;20125;-66
2022/10/14 07:44:08;;;;;;;14.32;10.30;;;;;;;13.07;100.00;101021.09;5275277;28;20037;-66
2022/10/14 07:46:42;;;;;;;11.98;9.95;;;;;;;13.06;100.00;101027.47;5276921;28;20028;-66
2022/10/14 07:49:19;;;;;;;13.05;9.80;;;;;;;13.09;100.00;101015.63;5280429;28;20032;-66
2022/10/14 07:51:50;;;;;;;12.73;10.00;;;;;;;13.21;100.00;101021.78;5271747;28;20086;-66
2022/10/14 07:54:24;;;;;;;12.70;10.45;;;;;;;13.17;100.00;101014.97;5283974;28;20143;-66
2022/10/14 07:56:56;;;;;;;12.73;9.65;;;;;;;13.18;100.00;101012.19;5287090;28;20135;-66
2022/10/14 07:59:28;;;;;;;12.60;9.85;;;;;;;13.27;100.00;101019.44;5283810;28;20354;-66
2022/10/14 08:01:59;;;;;;;12.45;9.68;;;;;;;13.26;100.00;100992.78;5284286;28;20040;-67
2022/10/14 08:04:30;;;;;;;14.15;10.60;;;;;;;13.27;100.00;101005.16;5266537;28;20040;-67
2022/10/14 08:07:03;;;;;;;13.82;10.43;;;;;;;13.33;100.00;101005.53;5281254;28;20071;-66
2022/10/14 08:09:35;;;;;;;13.50;10.82;;;;;;;13.31;100.00;101003.97;5283374;28;20028;-66
2022/10/14 08:12:07;;;;;;;13.35;10.10;;;;;;;13.46;100.00;101005.34;5293424;28;20020;-66
2022/10/14 08:14:38;;;;;;;12.88;10.63;;;;;;;13.39;100.00;101006.00;5285452;28;20471;-66
2022/10/14 08:17:09;;;;;;;13.32;10.25;;;;;;;13.37;100.00;101007.97;5285689;28;20103;-66
2022/10/14 08:19:41;;;;;;;13.35;10.25;;;;;;;13.49;100.00;101002.38;5291549;28;20046;-66
2022/10/14 08:22:12;;;;;;;15.20;10.50;;;;;;;13.49;100.00;100991.66;5283394;28;20040;-66
2022/10/14 08:24:43;;;;;;;13.38;10.05;;;;;;;13.48;100.00;100994.47;5271358;28;20035;-66
2022/10/14 08:27:15;;;;;;;12.60;9.63;;;;;;;13.52;100.00;100986.03;5293850;28;20132;-66
2022/10/14 08:29:46;;;;;;;12.23;9.82;;;;;;;13.57;100.00;100988.31;5284761;28;20919;-66
2022/10/14 08:32:17;;;;;;;12.27;9.60;;;;;;;13.62;100.00;100991.47;5272198;28;20484;-67
2022/10/14 08:34:48;;;;;;;14.13;10.23;;;;;;;13.64;100.00;100994.00;5278568;28;20039;-66
2022/10/14 08:37:20;;;;;;;13.35;10.48;;;;;;;13.74;100.00;100997.56;5287574;28;20033;-67
2022/10/14 08:39:52;;;;;;;13.90;10.25;;;;;;;13.70;100.00;100993.47;5280183;28;20103;-67
2022/10/14 08:42:48;;;;;;;12.25;10.10;;;;;;;13.74;100.00;101002.94;5288552;28;20123;-67
2022/10/14 08:45:32;;;;;;;12.77;9.65;;;;;;;13.77;100.00;100996.44;5288463;28;20044;-67
2022/10/14 08:48:12;;;;;;;12.68;9.85;;;;;;;13.82;100.00;100995.06;5274797;28;20111;-67
2022/10/14 08:50:50;;;;;;;12.77;10.38;;;;;;;13.85;100.00;100988.59;5286235;28;20036;-67
2022/10/14 08:53:27;;;;;;;12.15;9.77;;;;;;;13.89;100.00;100993.53;5279433;28;20550;-67
2022/10/14 08:56:01;;;;;;;13.40;10.18;;;;;;;13.95;100.00;100988.63;5285374;28;20087;-67
2022/10/14 08:58:37;;;;;;;12.63;9.82;;;;;;;13.88;100.00;100988.31;5282386;28;20077;-67
2022/10/14 09:01:30;;;;;;;11.80;10.02;;;;;;;13.95;100.00;100989.47;5278950;28;20095;-67
2022/10/14 09:04:05;;;;;;;12.15;10.20;;;;;;;13.93;100.00;100992.28;5293194;28;20027;-67
2022/10/14 09:06:39;;;;;;;12.52;10.35;;;;;;;13.91;100.00;100985.38;5280452;28;20492;-67
2022/10/14 09:09:23;;;;;;;12.85;9.48;;;;;;;14.02;100.00;100987.94;5279457;28;20137;-67
2022/10/14 09:12:05;;;;;;;11.05;9.25;;;;;;;14.03;100.00;100983.44;5277573;28;20063;-67
2022/10/14 09:14:41;;;;;;;10.77;9.68;;;;;;;14.02;100.00;100981.75;5281020;28;20017;-67
2022/10/14 09:17:20;;;;;;;11.30;8.65;;;;;;;14.14;100.00;100979.78;5286929;28;20089;-67
2022/10/14 09:20:12;;;;;;;12.45;9.02;;;;;;;14.06;100.00;100981.31;5279769;28;20032;-67
2022/10/14 09:23:18;;;;;;;12.73;9.13;;;;;;;14.16;100.00;100980.50;5277717;28;20059;-67
2022/10/14 09:25:57;;;;;;;11.23;8.57;;;;;;;14.11;100.00;100981.78;5280764;28;20047;-67
2022/10/14 09:28:39;;;;;;;10.95;8.98;;;;;;;14.11;100.00;100975.53;5273440;28;20555;-67
2022/10/14 09:31:12;;;;;;;12.75;9.52;;;;;;;14.16;100.00;100969.78;5284329;28;20078;-67
2022/10/14 09:33:44;;;;;;;11.55;8.60;;;;;;;14.24;100.00;100967.25;5268138;28;20265;-67
2022/10/14 09:36:18;;;;;;;11.27;8.43;;;;;;;14.25;100.00;100971.63;5264567;28;20050;-67
2022/10/14 09:38:51;;;;;;;;;;;;;;;14.27;100.00;100972.34;5267006;28;20024;-67
2022/10/14 09:41:29;;;;;;;11.20;7.70;;;;;;;14.23;100.00;100970.91;5266181;28;19944;-67
2022/10/14 09:44:21;;;;;;;11.32;8.15;;;;;;;14.27;100.00;100967.81;5266642;28;20425;-67
2022/10/14 09:46:58;;;;;;;12.32;8.48;;;;;;;14.25;100.00;100959.06;5268030;28;21489;-68
2022/10/14 09:49:38;;;;;;;8.98;7.53;;;;;;;14.23;100.00;100970.91;5265092;28;20033;-67
2022/10/14 09:52:21;;;;;;;9.20;7.78;;;;;;;14.28;100.00;100966.81;5260116;28;20078;-67
2022/10/14 09:55:00;;;;;;;9.68;7.57;;;;;;;14.26;100.00;100966.09;5257226;28;20497;-66
2022/10/14 09:57:31;;;;;;;11.10;8.77;;;;;;;14.37;100.00;100961.63;5262541;28;20024;-67
2022/10/14 10:00:05;;;;;;;9.23;7.93;;;;;;;14.40;100.00;100959.50;5264125;28;20044;-64
2022/10/14 10:02:41;;;;;;;10.82;9.10;;;;;;;14.41;100.00;100954.97;5266533;28;20102;-69
2022/10/14 10:05:25;;;;;;;11.05;8.48;;;;;;;14.37;100.00;100957.09;5285117;28;20090;-68
2022/10/14 10:08:00;;;;;;;;;;;;;;;14.43;100.00;100953.84;5262279;28;20094;-71
2022/10/14 10:10:34;;;;;;;9.75;8.20;;;;;;;14.43;100.00;100947.63;5269959;28;20405;-66
2022/10/14 10:13:32;;;;;;;13.05;9.30;;;;;;;14.45;100.00;100953.72;5280183;28;20020;-71
2022/10/14 10:16:05;;;;;;;10.52;8.85;;;;;;;14.41;100.00;100949.59;5265129;28;22124;-71
2022/10/14 10:18:36;;;;;;;13.13;9.80;;;;;;;14.40;100.00;100947.91;5273983;28;20027;-66
2022/10/14 10:21:23;;;;;;;12.70;9.45;;;;;;;14.45;100.00;100943.81;5270046;28;20028;-68
2022/10/14 10:24:02;;;;;;;12.52;9.30;;;;;;;14.44;100.00;100938.56;5284781;28;20066;-70
2022/10/14 10:26:33;;;;;;;13.57;9.82;;;;;;;14.44;100.00;100943.94;5273641;28;20068;-71
2022/10/14 10:29:05;;;;;;;10.98;9.20;;;;;;;14.48;100.00;100934.66;5265144;28;20439;-73
2022/10/14 10:31:54;;;;;;;11.15;9.30;;;;;;;14.39;100.00;100930.94;5280029;28;20032;-71
2022/10/14 10:34:45;;;;;;;12.32;10.10;;;;;;;14.49;100.00;100931.78;5286613;28;20047;-71
2022/10/14 10:37:30;;;;;;;11.20;9.82;;;;;;;14.46;100.00;100923.19;5268667;28;20025;-71
2022/10/14 10:40:25;;;;;;;11.20;9.35;;;;;;;14.47;100.00;100923.03;5284505;28;20031;-70
2022/10/14 10:43:21;;;;;;;12.30;9.32;;;;;;;14.51;100.00;100920.91;5295807;28;20024;-71
2022/10/14 10:46:02;;;;;;;11.35;9.10;;;;;;;14.59;100.00;100931.00;5285528;28;20423;-71
2022/10/14 10:49:00;;;;;;;10.70;9.18;;;;;;;14.62;100.00;100926.19;5286088;28;20067;-70
2022/10/14 10:51:52;;;;;;;10.02;8.95;;;;;;;14.60;100.00;100919.28;5283079;28;20032;-71
2022/10/14 10:54:34;;;;;;;9.75;8.55;;;;;;;14.57;100.00;100917.69;5269879;28;20056;-72
2022/10/14 10:57:29;;;;;;;10.18;8.30;;;;;;;14.62;100.00;100914.59;5287891;28;20031;-64
2022/10/14 11:00:15;;;;;;;9.88;8.60;;;;;;;14.59;100.00;100915.72;5282707;28;20035;-64
2022/10/14 11:02:55;;;;;;;10.50;9.32;;;;;;;14.67;100.00;100907.81;5285611;28;20530;-64
2022/10/14 11:05:42;;;;;;;10.68;8.50;;;;;;;14.62;100.00;100910.06;5261306;28;20031;-64
2022/10/14 11:12:05;;;;;;;9.18;8.05;;;;;;;14.62;100.00;100898.50;5280318;28;20044;-66
2022/10/14 11:15:08;;;;;;;9.70;8.52;;;;;;;14.63;100.00;100901.03;5269795;28;20115;-64
2022/10/14 11:17:58;;;;;;;9.45;8.52;;;;;;;14.66;100.00;100897.22;5277904;28;20540;-64
2022/10/14 11:21:04;;;;;;;10.88;9.25;;;;;;;14.62;100.00;100904.69;5262542;28;20106;-64
2022/10/14 11:23:47;;;;;;;10.27;9.27;;;;;;;14.61;100.00;100894.97;5264034;28;20029;-65
2022/10/14 11:26:42;;;;;;;11.65;10.50;;;;;;;14.57;100.00;100901.59;5271172;28;20094;-65
2022/10/14 11:29:36;;;;;;;11.98;10.60;;;;;;;14.60;100.00;100892.41;5268506;28;20032;-64
2022/10/14 11:32:20;;;;;;;13.43;12.10;;;;;;;14.59;100.00;100896.06;5280813;28;20571;-65
2022/10/14 11:35:07;;;;;;;12.18;10.85;;;;;;;14.56;100.00;100891.81;5271736;28;20029;-64
2022/10/14 11:38:09;;;;;;;12.88;11.57;;;;;;;14.57;100.00;100888.16;5293453;28;20020;-64
2022/10/14 11:41:03;;;;;;;12.40;10.98;;;;;;;14.58;100.00;100881.81;5272151;28;20040;-64
2022/10/14 11:44:00;;;;;;;12.88;11.50;;;;;;;14.59;100.00;100877.28;5261955;28;20037;-64
2022/10/14 11:46:36;;;;;;;13.35;12.05;;;;;;;14.57;100.00;100858.63;5292565;28;20131;-64
2022/10/14 11:49:30;;;;;;;12.93;11.55;;;;;;;14.62;100.00;100859.06;5291120;28;20027;-65